sensor_id;sensor_type;location;lat;lon;timestamp;pressure;altitude;pressure_sealevel;temperature;humidity
74578;BME280;63173;49.086;33.418;2022-09-21T00:55:56;99941.28;;;7.19;90.17
74578;BME280;63173;49.086;33.418;2022-09-21T00:58:25;99942.88;;;7.25;90.24
74578;BME280;63173;49.086;33.418;2022-09-21T01:00:53;99936.94;;;7.18;89.60
74578;BME280;63173;49.086;33.418;2022-09-21T01:03:19;99939.13;;;7.21;89.83
74578;BME280;63173;49.086;33.418;2022-09-21T01:05:44;99932.59;;;7.27;89.87
74578;BME280;63173;49.086;33.418;2022-09-21T01:33:26;99935.84;;;7.29;89.87
74578;BME280;63173;49.086;33.418;2022-09-21T01:35:58;99932.59;;;7.37;90.49
74578;BME280;63173;49.086;33.418;2022-09-21T01:44:34;99929.59;;;7.43;90.35
74578;BME280;63173;49.086;33.418;2022-09-21T01:48:57;99928.22;;;7.46;90.73
74578;BME280;63173;49.086;33.418;2022-09-21T01:51:26;99919.06;;;7.42;91.02
74578;BME280;63173;49.086;33.418;2022-09-21T02:05:10;99910.66;;;7.48;90.15
74578;BME280;63173;49.086;33.418;2022-09-21T02:07:36;99921.19;;;7.50;90.71
74578;BME280;63173;49.086;33.418;2022-09-21T02:10:06;99920.69;;;7.43;90.77
74578;BME280;63173;49.086;33.418;2022-09-21T02:12:33;99918.53;;;7.35;91.34
74578;BME280;63173;49.086;33.418;2022-09-21T02:14:59;99918.53;;;7.40;91.61
74578;BME280;63173;49.086;33.418;2022-09-21T02:20:27;99925.28;;;7.37;91.26
74578;BME280;63173;49.086;33.418;2022-09-21T02:25:51;99928.00;;;7.32;92.09
74578;BME280;63173;49.086;33.418;2022-09-21T02:28:46;99928.81;;;7.38;92.13
74578;BME280;63173;49.086;33.418;2022-09-21T02:37:51;99922.03;;;7.40;92.12
74578;BME280;63173;49.086;33.418;2022-09-21T02:40:30;99922.03;;;7.40;91.81
74578;BME280;63173;49.086;33.418;2022-09-21T02:43:00;99915.84;;;7.40;92.45
74578;BME280;63173;49.086;33.418;2022-09-21T02:45:32;99929.03;;;7.46;92.10
74578;BME280;63173;49.086;33.418;2022-09-21T02:48:08;99922.28;;;7.49;91.41
74578;BME280;63173;49.086;33.418;2022-09-21T02:50:43;99929.31;;;7.55;91.91
74578;BME280;63173;49.086;33.418;2022-09-21T02:53:10;99925.53;;;7.51;91.79
74578;BME280;63173;49.086;33.418;2022-09-21T02:55:38;99924.94;;;7.59;92.13
74578;BME280;63173;49.086;33.418;2022-09-21T02:58:06;99925.47;;;7.66;91.97
74578;BME280;63173;49.086;33.418;2022-09-21T03:09:20;99933.59;;;7.66;92.76
74578;BME280;63173;49.086;33.418;2022-09-21T03:12:41;99933.28;;;7.73;92.22
74578;BME280;63173;49.086;33.418;2022-09-21T03:15:09;99930.81;;;7.76;92.21
74578;BME280;63173;49.086;33.418;2022-09-21T03:17:35;99931.09;;;7.80;91.62
74578;BME280;63173;49.086;33.418;2022-09-21T03:20:00;99921.94;;;7.76;92.37
74578;BME280;63173;49.086;33.418;2022-09-21T03:22:26;99931.88;;;7.80;92.28
74578;BME280;63173;49.086;33.418;2022-09-21T03:24:52;99929.19;;;7.80;93.20
74578;BME280;63173;49.086;33.418;2022-09-21T03:27:21;99937.78;;;7.92;92.24
74578;BME280;63173;49.086;33.418;2022-09-21T03:29:48;99930.22;;;7.89;92.06
74578;BME280;63173;49.086;33.418;2022-09-21T03:32:14;99930.78;;;7.86;92.82
74578;BME280;63173;49.086;33.418;2022-09-21T03:34:40;99934.56;;;7.90;92.99
74578;BME280;63173;49.086;33.418;2022-09-21T03:37:07;99929.16;;;7.90;91.91
74578;BME280;63173;49.086;33.418;2022-09-21T03:39:33;99925.88;;;7.93;92.82
74578;BME280;63173;49.086;33.418;2022-09-21T03:41:59;99933.72;;;7.95;93.41
74578;BME280;63173;49.086;33.418;2022-09-21T03:44:25;99928.00;;;8.01;93.24
74578;BME280;63173;49.086;33.418;2022-09-21T03:46:51;99923.69;;;8.00;92.79
74578;BME280;63173;49.086;33.418;2022-09-21T03:49:17;99927.47;;;8.04;93.06
74578;BME280;63173;49.086;33.418;2022-09-21T03:51:43;99923.88;;;8.14;92.98
74578;BME280;63173;49.086;33.418;2022-09-21T03:54:09;99930.34;;;8.18;92.79
74578;BME280;63173;49.086;33.418;2022-09-21T03:56:35;99930.09;;;8.19;92.18
74578;BME280;63173;49.086;33.418;2022-09-21T03:59:00;99924.94;;;8.18;92.81
74578;BME280;63173;49.086;33.418;2022-09-21T04:01:26;99921.97;;;8.24;92.52
74578;BME280;63173;49.086;33.418;2022-09-21T04:03:51;99922.47;;;8.21;93.40
74578;BME280;63173;49.086;33.418;2022-09-21T04:06:16;99921.09;;;8.29;91.95
74578;BME280;63173;49.086;33.418;2022-09-21T04:08:42;99931.13;;;8.28;92.65
74578;BME280;63173;49.086;33.418;2022-09-21T04:11:12;99934.56;;;8.39;92.00
74578;BME280;63173;49.086;33.418;2022-09-21T04:13:38;99928.91;;;8.35;92.19
74578;BME280;63173;49.086;33.418;2022-09-21T04:16:04;99934.03;;;8.42;92.56
74578;BME280;63173;49.086;33.418;2022-09-21T04:18:29;99929.41;;;8.42;92.57
74578;BME280;63173;49.086;33.418;2022-09-21T04:20:56;99938.03;;;8.44;92.98
74578;BME280;63173;49.086;33.418;2022-09-21T04:23:22;99939.88;;;8.54;93.13
74578;BME280;63173;49.086;33.418;2022-09-21T04:25:48;99930.94;;;8.53;93.06
74578;BME280;63173;49.086;33.418;2022-09-21T04:28:16;99940.63;;;8.65;92.64
74578;BME280;63173;49.086;33.418;2022-09-21T04:30:41;99935.22;;;8.65;91.52
74578;BME280;63173;49.086;33.418;2022-09-21T04:33:07;99938.94;;;8.74;91.82
74578;BME280;63173;49.086;33.418;2022-09-21T04:35:32;99927.56;;;8.72;92.33
74578;BME280;63173;49.086;33.418;2022-09-21T04:37:57;99938.88;;;8.79;92.67
74578;BME280;63173;49.086;33.418;2022-09-21T04:40:23;99926.91;;;8.85;91.35
74578;BME280;63173;49.086;33.418;2022-09-21T04:42:52;99922.53;;;8.89;91.63
74578;BME280;63173;49.086;33.418;2022-09-21T04:45:18;99933.00;;;9.00;91.75
74578;BME280;63173;49.086;33.418;2022-09-21T04:47:44;99935.13;;;9.03;91.49
74578;BME280;63173;49.086;33.418;2022-09-21T04:50:09;99922.63;;;9.07;91.23
74578;BME280;63173;49.086;33.418;2022-09-21T04:52:35;99928.91;;;9.03;91.70
74578;BME280;63173;49.086;33.418;2022-09-21T04:55:01;99934.47;;;9.16;91.08
74578;BME280;63173;49.086;33.418;2022-09-21T04:57:26;99932.03;;;9.15;91.12
74578;BME280;63173;49.086;33.418;2022-09-21T04:59:52;99929.78;;;9.27;89.81
74578;BME280;63173;49.086;33.418;2022-09-21T05:02:18;99940.84;;;9.30;90.29
74578;BME280;63173;49.086;33.418;2022-09-21T05:04:43;99936.56;;;9.24;90.76
74578;BME280;63173;49.086;33.418;2022-09-21T05:07:09;99936.78;;;9.28;90.54
74578;BME280;63173;49.086;33.418;2022-09-21T05:09:34;99928.34;;;9.34;91.83
74578;BME280;63173;49.086;33.418;2022-09-21T05:12:18;99933.75;;;9.34;90.32
74578;BME280;63173;49.086;33.418;2022-09-21T05:14:43;99940.97;;;9.44;89.39
74578;BME280;63173;49.086;33.418;2022-09-21T05:17:10;99931.09;;;9.53;90.31
74578;BME280;63173;49.086;33.418;2022-09-21T05:19:36;99940.56;;;9.56;90.62
74578;BME280;63173;49.086;33.418;2022-09-21T05:22:02;99932.91;;;9.63;88.85
74578;BME280;63173;49.086;33.418;2022-09-21T05:24:27;99928.50;;;9.67;89.11
74578;BME280;63173;49.086;33.418;2022-09-21T05:26:53;99939.69;;;9.60;90.02
74578;BME280;63173;49.086;33.418;2022-09-21T05:29:18;99943.63;;;9.73;89.20
74578;BME280;63173;49.086;33.418;2022-09-21T05:31:50;99940.25;;;9.81;89.65
74578;BME280;63173;49.086;33.418;2022-09-21T05:34:51;99945.22;;;9.74;89.61
74578;BME280;63173;49.086;33.418;2022-09-21T05:40:02;99950.69;;;9.92;87.95
74578;BME280;63173;49.086;33.418;2022-09-21T05:42:28;99951.91;;;10.05;87.99
74578;BME280;63173;49.086;33.418;2022-09-21T05:44:54;99948.34;;;10.09;88.57
74578;BME280;63173;49.086;33.418;2022-09-21T05:47:39;99952.53;;;10.20;87.16
74578;BME280;63173;49.086;33.418;2022-09-21T05:50:27;99948.28;;;10.33;86.77
74578;BME280;63173;49.086;33.418;2022-09-21T05:55:54;99947.78;;;10.31;86.53
74578;BME280;63173;49.086;33.418;2022-09-21T06:00:51;99955.91;;;10.50;85.14
74578;BME280;63173;49.086;33.418;2022-09-21T06:05:47;99950.34;;;10.60;84.60
74578;BME280;63173;49.086;33.418;2022-09-21T06:08:13;99957.94;;;10.76;83.42
74578;BME280;63173;49.086;33.418;2022-09-21T06:10:38;99953.97;;;10.87;84.00
74578;BME280;63173;49.086;33.418;2022-09-21T06:13:03;99966.53;;;10.83;83.83
74578;BME280;63173;49.086;33.418;2022-09-21T06:15:29;99961.19;;;10.78;82.71
74578;BME280;63173;49.086;33.418;2022-09-21T06:17:54;99963.25;;;11.00;81.20
74578;BME280;63173;49.086;33.418;2022-09-21T06:20:21;99967.41;;;11.11;81.81
74578;BME280;63173;49.086;33.418;2022-09-21T06:22:49;99969.53;;;10.82;82.83
74578;BME280;63173;49.086;33.418;2022-09-21T06:25:14;99968.31;;;10.74;83.13
74578;BME280;63173;49.086;33.418;2022-09-21T06:27:40;99980.72;;;10.80;80.95
74578;BME280;63173;49.086;33.418;2022-09-21T06:30:06;99993.25;;;10.76;81.06
74578;BME280;63173;49.086;33.418;2022-09-21T06:32:31;99981.50;;;10.81;81.32
74578;BME280;63173;49.086;33.418;2022-09-21T06:34:57;99979.13;;;10.93;81.88
74578;BME280;63173;49.086;33.418;2022-09-21T06:37:22;99966.69;;;10.73;81.77
74578;BME280;63173;49.086;33.418;2022-09-21T06:39:47;99996.25;;;10.93;80.39
74578;BME280;63173;49.086;33.418;2022-09-21T06:42:13;99985.28;;;10.98;80.59
74578;BME280;63173;49.086;33.418;2022-09-21T06:44:38;99993.25;;;10.95;81.76
74578;BME280;63173;49.086;33.418;2022-09-21T06:47:04;99988.22;;;11.02;80.03
74578;BME280;63173;49.086;33.418;2022-09-21T06:49:29;99996.81;;;11.09;80.39
74578;BME280;63173;49.086;33.418;2022-09-21T06:51:55;100002.03;;;11.05;80.60
74578;BME280;63173;49.086;33.418;2022-09-21T06:54:20;100000.94;;;11.06;80.57
74578;BME280;63173;49.086;33.418;2022-09-21T06:56:46;99995.34;;;11.16;80.90
74578;BME280;63173;49.086;33.418;2022-09-21T06:59:12;100007.50;;;11.19;80.78
74578;BME280;63173;49.086;33.418;2022-09-21T07:01:37;100006.63;;;11.23;78.98
74578;BME280;63173;49.086;33.418;2022-09-21T07:04:03;99994.34;;;10.94;79.48
74578;BME280;63173;49.086;33.418;2022-09-21T07:06:28;99990.63;;;10.90;79.10
74578;BME280;63173;49.086;33.418;2022-09-21T07:08:54;100001.66;;;11.12;78.96
74578;BME280;63173;49.086;33.418;2022-09-21T07:11:19;99998.06;;;10.98;78.73
74578;BME280;63173;49.086;33.418;2022-09-21T07:13:48;99999.66;;;11.17;79.00
74578;BME280;63173;49.086;33.418;2022-09-21T07:16:13;100004.38;;;11.12;78.94
74578;BME280;63173;49.086;33.418;2022-09-21T07:18:39;100005.25;;;11.07;78.58
74578;BME280;63173;49.086;33.418;2022-09-21T07:21:06;100001.44;;;11.08;78.27
74578;BME280;63173;49.086;33.418;2022-09-21T07:23:33;99999.81;;;11.26;77.64
74578;BME280;63173;49.086;33.418;2022-09-21T07:26:07;100012.78;;;11.29;77.85
74578;BME280;63173;49.086;33.418;2022-09-21T07:28:33;100000.31;;;11.42;78.91
74578;BME280;63173;49.086;33.418;2022-09-21T07:31:07;100004.59;;;11.61;77.49
74578;BME280;63173;49.086;33.418;2022-09-21T07:33:33;100006.34;;;11.71;77.62
74578;BME280;63173;49.086;33.418;2022-09-21T07:36:00;100004.78;;;11.65;76.92
74578;BME280;63173;49.086;33.418;2022-09-21T07:38:28;100023.19;;;11.86;75.96
74578;BME280;63173;49.086;33.418;2022-09-21T07:40:53;100012.31;;;11.41;75.54
74578;BME280;63173;49.086;33.418;2022-09-21T07:43:19;100014.56;;;11.52;76.14
74578;BME280;63173;49.086;33.418;2022-09-21T07:45:52;100016.97;;;11.54;76.47
74578;BME280;63173;49.086;33.418;2022-09-21T07:48:19;100014.97;;;11.59;76.58
74578;BME280;63173;49.086;33.418;2022-09-21T07:50:47;100013.44;;;11.53;77.40
74578;BME280;63173;49.086;33.418;2022-09-21T07:53:13;100009.03;;;11.57;76.57
74578;BME280;63173;49.086;33.418;2022-09-21T07:55:40;100010.66;;;11.58;75.24
74578;BME280;63173;49.086;33.418;2022-09-21T07:58:06;100014.31;;;11.67;76.13
74578;BME280;63173;49.086;33.418;2022-09-21T08:00:50;100010.78;;;11.80;75.54
74578;BME280;63173;49.086;33.418;2022-09-21T08:03:16;100014.94;;;11.91;75.87
74578;BME280;63173;49.086;33.418;2022-09-21T08:05:42;100025.41;;;12.11;74.49
74578;BME280;63173;49.086;33.418;2022-09-21T08:08:07;100024.31;;;11.99;75.03
74578;BME280;63173;49.086;33.418;2022-09-21T08:10:33;100009.56;;;12.41;73.77
74578;BME280;63173;49.086;33.418;2022-09-21T08:12:59;100009.50;;;12.05;74.63
74578;BME280;63173;49.086;33.418;2022-09-21T08:15:25;100011.78;;;12.11;75.43
74578;BME280;63173;49.086;33.418;2022-09-21T08:17:52;100010.56;;;12.17;74.82
74578;BME280;63173;49.086;33.418;2022-09-21T08:20:18;100011.69;;;12.30;74.79
74578;BME280;63173;49.086;33.418;2022-09-21T08:22:44;100011.97;;;12.15;74.56
74578;BME280;63173;49.086;33.418;2022-09-21T08:25:09;100019.56;;;12.18;74.44
74578;BME280;63173;49.086;33.418;2022-09-21T08:27:35;100012.47;;;12.30;73.62
74578;BME280;63173;49.086;33.418;2022-09-21T08:30:02;100017.22;;;12.39;72.53
74578;BME280;63173;49.086;33.418;2022-09-21T08:32:28;100010.38;;;12.27;73.70
74578;BME280;63173;49.086;33.418;2022-09-21T08:34:53;100008.53;;;12.37;72.76
74578;BME280;63173;49.086;33.418;2022-09-21T08:37:18;100004.31;;;12.30;73.43
74578;BME280;63173;49.086;33.418;2022-09-21T08:39:46;100005.28;;;12.48;73.68
74578;BME280;63173;49.086;33.418;2022-09-21T08:42:41;99999.34;;;12.46;73.08
74578;BME280;63173;49.086;33.418;2022-09-21T08:45:13;100003.91;;;12.37;73.40
74578;BME280;63173;49.086;33.418;2022-09-21T08:47:43;100009.75;;;12.44;74.38
74578;BME280;63173;49.086;33.418;2022-09-21T08:52:57;100000.88;;;12.25;73.67
74578;BME280;63173;49.086;33.418;2022-09-21T08:55:25;100021.06;;;12.24;73.82
74578;BME280;63173;49.086;33.418;2022-09-21T08:57:50;100011.66;;;12.44;74.63
74578;BME280;63173;49.086;33.418;2022-09-21T09:00:18;100018.41;;;12.46;73.96
74578;BME280;63173;49.086;33.418;2022-09-21T09:08:55;100009.09;;;12.61;74.54
74578;BME280;63173;49.086;33.418;2022-09-21T09:15:01;100011.84;;;12.47;72.43
74578;BME280;63173;49.086;33.418;2022-09-21T09:17:42;100002.03;;;12.60;72.73
74578;BME280;63173;49.086;33.418;2022-09-21T09:20:25;100004.06;;;12.90;72.05
74578;BME280;63173;49.086;33.418;2022-09-21T09:25:50;100021.63;;;13.19;70.45
74578;BME280;63173;49.086;33.418;2022-09-21T09:28:36;100018.66;;;13.07;69.98
74578;BME280;63173;49.086;33.418;2022-09-21T09:31:15;100018.50;;;12.90;69.04
74578;BME280;63173;49.086;33.418;2022-09-21T09:33:51;100040.28;;;13.04;67.82
74578;BME280;63173;49.086;33.418;2022-09-21T09:36:18;100025.53;;;13.05;68.05
74578;BME280;63173;49.086;33.418;2022-09-21T09:38:56;100020.94;;;13.14;68.67
74578;BME280;63173;49.086;33.418;2022-09-21T09:47:18;100022.72;;;13.41;68.52
74578;BME280;63173;49.086;33.418;2022-09-21T09:52:22;100023.28;;;13.51;68.68
74578;BME280;63173;49.086;33.418;2022-09-21T09:54:47;100032.81;;;13.62;69.03
74578;BME280;63173;49.086;33.418;2022-09-21T09:57:13;100028.25;;;13.49;68.27
74578;BME280;63173;49.086;33.418;2022-09-21T09:59:52;100026.56;;;13.62;67.52
74578;BME280;63173;49.086;33.418;2022-09-21T10:02:23;100032.38;;;14.08;66.19
74578;BME280;63173;49.086;33.418;2022-09-21T10:05:00;100017.69;;;14.35;67.09
74578;BME280;63173;49.086;33.418;2022-09-21T10:07:51;100020.72;;;13.85;68.08
74578;BME280;63173;49.086;33.418;2022-09-21T10:12:46;100029.38;;;13.79;67.86
74578;BME280;63173;49.086;33.418;2022-09-21T10:15:12;100022.38;;;13.95;66.62
74578;BME280;63173;49.086;33.418;2022-09-21T10:17:38;100032.84;;;14.01;66.46
74578;BME280;63173;49.086;33.418;2022-09-21T10:20:05;100012.19;;;13.78;67.67
74578;BME280;63173;49.086;33.418;2022-09-21T10:22:32;100018.59;;;13.74;67.50
74578;BME280;63173;49.086;33.418;2022-09-21T10:24:58;100018.13;;;13.80;67.51
74578;BME280;63173;49.086;33.418;2022-09-21T10:27:33;100028.13;;;13.85;65.87
74578;BME280;63173;49.086;33.418;2022-09-21T10:29:59;100022.69;;;13.93;67.10
74578;BME280;63173;49.086;33.418;2022-09-21T10:32:26;100031.09;;;14.53;66.08
74578;BME280;63173;49.086;33.418;2022-09-21T10:37:37;100031.13;;;14.79;62.51
74578;BME280;63173;49.086;33.418;2022-09-21T10:40:21;100042.22;;;14.74;62.04
74578;BME280;63173;49.086;33.418;2022-09-21T10:42:49;100027.84;;;14.43;64.44
74578;BME280;63173;49.086;33.418;2022-09-21T10:45:22;100024.94;;;14.39;65.52
74578;BME280;63173;49.086;33.418;2022-09-21T10:47:52;100025.44;;;14.50;65.52
74578;BME280;63173;49.086;33.418;2022-09-21T10:50:38;100030.91;;;14.41;65.28
74578;BME280;63173;49.086;33.418;2022-09-21T10:55:54;100040.56;;;14.47;67.92
74578;BME280;63173;49.086;33.418;2022-09-21T10:58:21;100052.66;;;14.55;64.91
74578;BME280;63173;49.086;33.418;2022-09-21T11:00:48;100047.34;;;15.52;63.86
74578;BME280;63173;49.086;33.418;2022-09-21T11:06:21;100043.44;;;16.17;60.11
74578;BME280;63173;49.086;33.418;2022-09-21T11:08:59;100046.78;;;16.60;58.60
74578;BME280;63173;49.086;33.418;2022-09-21T11:22:37;100032.06;;;14.66;62.25
74578;BME280;63173;49.086;33.418;2022-09-21T11:27:46;100040.41;;;14.52;64.95
74578;BME280;63173;49.086;33.418;2022-09-21T11:30:18;100056.84;;;14.22;65.73
74578;BME280;63173;49.086;33.418;2022-09-21T11:36:07;100052.88;;;14.28;65.41
74578;BME280;63173;49.086;33.418;2022-09-21T11:38:59;100053.66;;;15.27;62.50
74578;BME280;63173;49.086;33.418;2022-09-21T11:44:37;100063.00;;;15.52;62.08
74578;BME280;63173;49.086;33.418;2022-09-21T11:52:42;100063.97;;;14.87;64.94
74578;BME280;63173;49.086;33.418;2022-09-21T11:55:33;100067.00;;;14.86;65.74
74578;BME280;63173;49.086;33.418;2022-09-21T11:58:11;100058.63;;;14.82;63.83
74578;BME280;63173;49.086;33.418;2022-09-21T12:09:41;100069.41;;;14.79;66.69
74578;BME280;63173;49.086;33.418;2022-09-21T12:12:41;100074.53;;;16.21;61.18
74578;BME280;63173;49.086;33.418;2022-09-21T12:15:13;100074.13;;;17.18;58.49
74578;BME280;63173;49.086;33.418;2022-09-21T12:17:55;100083.34;;;17.14;56.51
74578;BME280;63173;49.086;33.418;2022-09-21T12:22:59;100073.78;;;16.99;58.12
74578;BME280;63173;49.086;33.418;2022-09-21T12:25:36;100079.34;;;17.97;55.04
74578;BME280;63173;49.086;33.418;2022-09-21T12:30:43;100079.47;;;16.36;58.12
74578;BME280;63173;49.086;33.418;2022-09-21T12:33:30;100089.19;;;16.62;57.48
74578;BME280;63173;49.086;33.418;2022-09-21T12:36:11;100086.31;;;17.62;54.97
74578;BME280;63173;49.086;33.418;2022-09-21T12:38:47;100085.69;;;16.45;57.18
74578;BME280;63173;49.086;33.418;2022-09-21T12:46:24;100091.50;;;16.43;54.34
74578;BME280;63173;49.086;33.418;2022-09-21T12:48:52;100094.44;;;17.17;51.75
74578;BME280;63173;49.086;33.418;2022-09-21T12:51:32;100095.28;;;16.68;53.08
74578;BME280;63173;49.086;33.418;2022-09-21T12:54:05;100101.41;;;15.81;54.49
74578;BME280;63173;49.086;33.418;2022-09-21T12:56:44;100097.09;;;15.54;56.01
74578;BME280;63173;49.086;33.418;2022-09-21T13:02:02;100089.38;;;15.22;59.93
74578;BME280;63173;49.086;33.418;2022-09-21T13:04:47;100099.59;;;14.65;60.77
74578;BME280;63173;49.086;33.418;2022-09-21T13:10:32;100105.06;;;14.57;62.31
74578;BME280;63173;49.086;33.418;2022-09-21T13:13:04;100106.59;;;14.32;62.61
74578;BME280;63173;49.086;33.418;2022-09-21T13:15:41;100108.75;;;14.22;63.42
74578;BME280;63173;49.086;33.418;2022-09-21T13:20:51;100102.59;;;14.38;64.14
74578;BME280;63173;49.086;33.418;2022-09-21T13:23:25;100105.94;;;14.35;64.34
74578;BME280;63173;49.086;33.418;2022-09-21T13:26:05;100107.69;;;14.00;66.60
74578;BME280;63173;49.086;33.418;2022-09-21T13:34:20;100116.06;;;13.73;68.74
74578;BME280;63173;49.086;33.418;2022-09-21T13:39:43;100106.34;;;13.89;68.52
74578;BME280;63173;49.086;33.418;2022-09-21T13:44:54;100111.34;;;13.65;70.01
74578;BME280;63173;49.086;33.418;2022-09-21T13:47:33;100109.22;;;13.84;69.82
74578;BME280;63173;49.086;33.418;2022-09-21T13:50:01;100115.06;;;13.69;70.91
74578;BME280;63173;49.086;33.418;2022-09-21T13:52:44;100125.19;;;13.47;71.14
74578;BME280;63173;49.086;33.418;2022-09-21T13:55:28;100129.63;;;13.43;71.47
74578;BME280;63173;49.086;33.418;2022-09-21T13:57:55;100125.50;;;13.45;71.54
74578;BME280;63173;49.086;33.418;2022-09-21T14:00:36;100130.41;;;13.57;71.61
74578;BME280;63173;49.086;33.418;2022-09-21T14:03:26;100125.53;;;13.54;71.61
74578;BME280;63173;49.086;33.418;2022-09-21T14:06:03;100133.50;;;13.42;72.58
74578;BME280;63173;49.086;33.418;2022-09-21T14:08:36;100126.34;;;13.54;73.08
74578;BME280;63173;49.086;33.418;2022-09-21T14:11:09;100135.09;;;13.43;73.35
74578;BME280;63173;49.086;33.418;2022-09-21T14:14:03;100126.59;;;13.44;73.37
74578;BME280;63173;49.086;33.418;2022-09-21T14:24:54;100136.91;;;13.47;74.51
74578;BME280;63173;49.086;33.418;2022-09-21T14:27:43;100123.38;;;13.42;74.49
74578;BME280;63173;49.086;33.418;2022-09-21T14:30:20;100129.91;;;13.55;74.45
74578;BME280;63173;49.086;33.418;2022-09-21T14:35:30;100135.16;;;13.51;74.12
74578;BME280;63173;49.086;33.418;2022-09-21T14:37:59;100128.41;;;13.49;73.55
74578;BME280;63173;49.086;33.418;2022-09-21T14:40:34;100124.84;;;13.48;74.83
74578;BME280;63173;49.086;33.418;2022-09-21T14:43:11;100128.28;;;13.54;72.76
74578;BME280;63173;49.086;33.418;2022-09-21T14:46:02;100135.63;;;13.53;73.22
74578;BME280;63173;49.086;33.418;2022-09-21T15:02:33;100138.13;;;13.41;74.78
74578;BME280;63173;49.086;33.418;2022-09-21T15:07:40;100141.72;;;13.28;76.41
74578;BME280;63173;49.086;33.418;2022-09-21T15:10:41;100149.22;;;13.23;77.64
74578;BME280;63173;49.086;33.418;2022-09-21T15:13:35;100148.94;;;13.10;77.66
74578;BME280;63173;49.086;33.418;2022-09-21T15:21:49;100148.03;;;13.15;76.63
74578;BME280;63173;49.086;33.418;2022-09-21T15:26:44;100153.88;;;12.95;74.88
74578;BME280;63173;49.086;33.418;2022-09-21T15:29:25;100152.78;;;12.82;73.83
74578;BME280;63173;49.086;33.418;2022-09-21T15:31:51;100149.63;;;12.89;74.84
74578;BME280;63173;49.086;33.418;2022-09-21T15:34:18;100161.66;;;12.88;74.27
74578;BME280;63173;49.086;33.418;2022-09-21T15:36:44;100154.38;;;12.97;75.02
74578;BME280;63173;49.086;33.418;2022-09-21T15:39:30;100160.75;;;12.92;76.47
74578;BME280;63173;49.086;33.418;2022-09-21T15:44:33;100159.13;;;12.78;78.96
74578;BME280;63173;49.086;33.418;2022-09-21T15:47:02;100165.53;;;12.87;78.12
74578;BME280;63173;49.086;33.418;2022-09-21T15:49:28;100163.31;;;12.75;79.26
74578;BME280;63173;49.086;33.418;2022-09-21T15:55:15;100161.66;;;12.61;78.23
74578;BME280;63173;49.086;33.418;2022-09-21T15:57:34;100159.38;;;12.54;77.67
74578;BME280;63173;49.086;33.418;2022-09-21T16:02:36;100157.66;;;12.45;77.51
74578;BME280;63173;49.086;33.418;2022-09-21T16:05:04;100166.72;;;12.40;77.80
74578;BME280;63173;49.086;33.418;2022-09-21T16:07:33;100171.06;;;12.41;77.91
74578;BME280;63173;49.086;33.418;2022-09-21T16:10:00;100182.34;;;12.35;77.28
74578;BME280;63173;49.086;33.418;2022-09-21T16:12:42;100184.56;;;12.32;77.98
74578;BME280;63173;49.086;33.418;2022-09-21T16:15:22;100177.09;;;12.24;78.45
74578;BME280;63173;49.086;33.418;2022-09-21T16:18:03;100174.34;;;12.24;78.62
74578;BME280;63173;49.086;33.418;2022-09-21T16:20:47;100178.56;;;12.03;79.77
74578;BME280;63173;49.086;33.418;2022-09-21T16:23:22;100182.00;;;12.09;79.75
74578;BME280;63173;49.086;33.418;2022-09-21T16:25:59;100184.13;;;12.12;79.59
74578;BME280;63173;49.086;33.418;2022-09-21T16:28:39;100192.47;;;12.02;80.09
74578;BME280;63173;49.086;33.418;2022-09-21T16:31:32;100196.91;;;11.98;81.24
74578;BME280;63173;49.086;33.418;2022-09-21T16:34:00;100200.94;;;12.00;80.32
74578;BME280;63173;49.086;33.418;2022-09-21T16:38:57;100207.56;;;11.94;81.94
74578;BME280;63173;49.086;33.418;2022-09-21T16:41:45;100208.06;;;11.96;81.65
74578;BME280;63173;49.086;33.418;2022-09-21T16:44:13;100206.31;;;11.87;82.09
74578;BME280;63173;49.086;33.418;2022-09-21T16:46:46;100211.50;;;11.88;82.04
74578;BME280;63173;49.086;33.418;2022-09-21T16:49:14;100210.75;;;11.83;82.66
74578;BME280;63173;49.086;33.418;2022-09-21T16:51:44;100206.78;;;11.94;81.88
74578;BME280;63173;49.086;33.418;2022-09-21T16:54:11;100213.91;;;11.90;82.13
74578;BME280;63173;49.086;33.418;2022-09-21T16:56:38;100211.25;;;11.85;82.61
74578;BME280;63173;49.086;33.418;2022-09-21T16:59:15;100217.53;;;11.85;82.53
74578;BME280;63173;49.086;33.418;2022-09-21T17:01:46;100216.50;;;11.81;83.25
74578;BME280;63173;49.086;33.418;2022-09-21T17:04:15;100220.44;;;11.89;82.73
74578;BME280;63173;49.086;33.418;2022-09-21T17:06:41;100213.09;;;11.89;82.18
74578;BME280;63173;49.086;33.418;2022-09-21T17:09:27;100218.44;;;11.94;82.66
74578;BME280;63173;49.086;33.418;2022-09-21T17:11:55;100214.88;;;11.80;83.50
74578;BME280;63173;49.086;33.418;2022-09-21T17:14:24;100224.00;;;11.71;83.44
74578;BME280;63173;49.086;33.418;2022-09-21T17:16:52;100223.63;;;11.77;82.79
74578;BME280;63173;49.086;33.418;2022-09-21T17:19:19;100224.31;;;11.69;83.66
74578;BME280;63173;49.086;33.418;2022-09-21T17:21:46;100221.81;;;11.73;83.47
74578;BME280;63173;49.086;33.418;2022-09-21T17:24:12;100226.28;;;11.64;83.99
74578;BME280;63173;49.086;33.418;2022-09-21T17:26:38;100224.78;;;11.53;84.75
74578;BME280;63173;49.086;33.418;2022-09-21T17:29:15;100226.22;;;11.50;85.22
74578;BME280;63173;49.086;33.418;2022-09-21T17:31:41;100225.31;;;11.36;85.90
74578;BME280;63173;49.086;33.418;2022-09-21T17:34:08;100226.13;;;11.36;85.31
74578;BME280;63173;49.086;33.418;2022-09-21T17:36:36;100232.06;;;11.38;85.91
74578;BME280;63173;49.086;33.418;2022-09-21T17:39:02;100239.81;;;11.31;85.42
74578;BME280;63173;49.086;33.418;2022-09-21T17:41:33;100235.09;;;11.37;84.78
74578;BME280;63173;49.086;33.418;2022-09-21T17:49:09;100241.28;;;11.43;84.36